sensor_id;sensor_type;location;lat;lon;timestamp;P1;durP1;ratioP1;P2;durP2;ratioP2
49730;SDS011;35622;52.008;5.426;2023-08-07T00:00:25;5.13;;;1.40;;
49730;SDS011;35622;52.008;5.426;2023-08-07T00:02:50;7.47;;;1.52;;
49730;SDS011;35622;52.008;5.426;2023-08-07T00:05:16;7.78;;;1.80;;
49730;SDS011;35622;52.008;5.426;2023-08-07T00:07:42;7.32;;;1.80;;
49730;SDS011;35622;52.008;5.426;2023-08-07T00:10:08;10.70;;;2.05;;
49730;SDS011;35622;52.008;5.426;2023-08-07T00:12:34;8.50;;;1.88;;
49730;SDS011;35622;52.008;5.426;2023-08-07T00:15:00;6.88;;;1.92;;
49730;SDS011;35622;52.008;5.426;2023-08-07T00:17:26;7.05;;;1.90;;
49730;SDS011;35622;52.008;5.426;2023-08-07T00:19:51;8.23;;;2.38;;
49730;SDS011;35622;52.008;5.426;2023-08-07T00:22:17;15.20;;;2.92;;
49730;SDS011;35622;52.008;5.426;2023-08-07T00:24:43;9.27;;;2.58;;
49730;SDS011;35622;52.008;5.426;2023-08-07T00:27:08;9.70;;;2.00;;
49730;SDS011;35622;52.008;5.426;2023-08-07T00:29:35;8.00;;;2.53;;
49730;SDS011;35622;52.008;5.426;2023-08-07T00:32:01;7.20;;;2.25;;
49730;SDS011;35622;52.008;5.426;2023-08-07T00:34:27;11.68;;;2.40;;
49730;SDS011;35622;52.008;5.426;2023-08-07T00:36:53;9.32;;;2.67;;
49730;SDS011;35622;52.008;5.426;2023-08-07T00:39:18;12.77;;;2.67;;
49730;SDS011;35622;52.008;5.426;2023-08-07T00:41:44;10.00;;;2.58;;
49730;SDS011;35622;52.008;5.426;2023-08-07T00:44:09;8.18;;;2.45;;
49730;SDS011;35622;52.008;5.426;2023-08-07T00:46:35;12.18;;;3.03;;
49730;SDS011;35622;52.008;5.426;2023-08-07T00:49:01;13.27;;;2.63;;
49730;SDS011;35622;52.008;5.426;2023-08-07T00:51:28;10.07;;;2.63;;
49730;SDS011;35622;52.008;5.426;2023-08-07T00:53:54;10.73;;;2.85;;
49730;SDS011;35622;52.008;5.426;2023-08-07T00:56:20;9.68;;;3.10;;
49730;SDS011;35622;52.008;5.426;2023-08-07T00:58:47;8.95;;;2.45;;
49730;SDS011;35622;52.008;5.426;2023-08-07T01:01:15;15.25;;;3.15;;
49730;SDS011;35622;52.008;5.426;2023-08-07T01:03:40;8.02;;;2.70;;
49730;SDS011;35622;52.008;5.426;2023-08-07T01:06:06;11.05;;;2.67;;
49730;SDS011;35622;52.008;5.426;2023-08-07T01:08:32;9.85;;;2.80;;
49730;SDS011;35622;52.008;5.426;2023-08-07T01:11:09;12.40;;;2.53;;
49730;SDS011;35622;52.008;5.426;2023-08-07T01:17:06;9.75;;;2.60;;
49730;SDS011;35622;52.008;5.426;2023-08-07T01:19:35;11.73;;;2.30;;
49730;SDS011;35622;52.008;5.426;2023-08-07T01:24:36;12.02;;;2.38;;
49730;SDS011;35622;52.008;5.426;2023-08-07T01:32:42;10.07;;;2.13;;
49730;SDS011;35622;52.008;5.426;2023-08-07T01:35:14;8.75;;;2.05;;
49730;SDS011;35622;52.008;5.426;2023-08-07T01:37:42;8.55;;;1.90;;
49730;SDS011;35622;52.008;5.426;2023-08-07T01:40:09;10.82;;;2.25;;
49730;SDS011;35622;52.008;5.426;2023-08-07T01:42:36;9.35;;;2.40;;
49730;SDS011;35622;52.008;5.426;2023-08-07T01:45:03;8.75;;;2.15;;
49730;SDS011;35622;52.008;5.426;2023-08-07T01:47:29;7.90;;;2.20;;
49730;SDS011;35622;52.008;5.426;2023-08-07T01:49:55;8.98;;;2.40;;
49730;SDS011;35622;52.008;5.426;2023-08-07T01:52:20;7.95;;;1.85;;
49730;SDS011;35622;52.008;5.426;2023-08-07T01:54:46;9.80;;;2.20;;
49730;SDS011;35622;52.008;5.426;2023-08-07T01:57:12;11.40;;;2.33;;
49730;SDS011;35622;52.008;5.426;2023-08-07T01:59:37;12.57;;;2.42;;
49730;SDS011;35622;52.008;5.426;2023-08-07T02:02:03;8.18;;;2.10;;
49730;SDS011;35622;52.008;5.426;2023-08-07T02:04:29;11.85;;;2.25;;
49730;SDS011;35622;52.008;5.426;2023-08-07T02:06:54;8.23;;;2.00;;
49730;SDS011;35622;52.008;5.426;2023-08-07T02:09:20;8.82;;;1.85;;
49730;SDS011;35622;52.008;5.426;2023-08-07T02:11:46;7.85;;;1.85;;
49730;SDS011;35622;52.008;5.426;2023-08-07T02:14:11;6.93;;;2.13;;
49730;SDS011;35622;52.008;5.426;2023-08-07T02:16:37;5.95;;;1.83;;
49730;SDS011;35622;52.008;5.426;2023-08-07T02:19:02;8.80;;;1.70;;
49730;SDS011;35622;52.008;5.426;2023-08-07T02:21:28;7.47;;;1.70;;
49730;SDS011;35622;52.008;5.426;2023-08-07T02:23:53;6.28;;;2.05;;
49730;SDS011;35622;52.008;5.426;2023-08-07T02:26:19;10.80;;;2.08;;
49730;SDS011;35622;52.008;5.426;2023-08-07T02:28:44;11.27;;;2.10;;
49730;SDS011;35622;52.008;5.426;2023-08-07T02:31:10;7.47;;;1.90;;
49730;SDS011;35622;52.008;5.426;2023-08-07T02:33:36;9.52;;;1.90;;
49730;SDS011;35622;52.008;5.426;2023-08-07T02:36:01;9.20;;;2.08;;
49730;SDS011;35622;52.008;5.426;2023-08-07T02:38:27;10.15;;;2.00;;
49730;SDS011;35622;52.008;5.426;2023-08-07T02:40:52;7.82;;;2.17;;
49730;SDS011;35622;52.008;5.426;2023-08-07T02:43:18;10.13;;;2.20;;
49730;SDS011;35622;52.008;5.426;2023-08-07T02:45:43;8.77;;;1.98;;
49730;SDS011;35622;52.008;5.426;2023-08-07T02:48:09;7.70;;;1.90;;
49730;SDS011;35622;52.008;5.426;2023-08-07T02:50:35;7.13;;;2.10;;
49730;SDS011;35622;52.008;5.426;2023-08-07T02:53:01;10.93;;;2.45;;
49730;SDS011;35622;52.008;5.426;2023-08-07T02:55:27;10.15;;;1.95;;
49730;SDS011;35622;52.008;5.426;2023-08-07T02:57:52;9.23;;;2.50;;
49730;SDS011;35622;52.008;5.426;2023-08-07T03:00:18;13.75;;;2.35;;
49730;SDS011;35622;52.008;5.426;2023-08-07T03:02:44;9.90;;;2.00;;
49730;SDS011;35622;52.008;5.426;2023-08-07T03:05:09;9.80;;;2.13;;
49730;SDS011;35622;52.008;5.426;2023-08-07T03:07:35;12.27;;;2.30;;
49730;SDS011;35622;52.008;5.426;2023-08-07T03:10:01;9.32;;;2.30;;
49730;SDS011;35622;52.008;5.426;2023-08-07T03:12:26;5.97;;;2.03;;
49730;SDS011;35622;52.008;5.426;2023-08-07T03:14:52;13.10;;;2.35;;
49730;SDS011;35622;52.008;5.426;2023-08-07T03:17:18;11.60;;;2.70;;
49730;SDS011;35622;52.008;5.426;2023-08-07T03:19:43;9.07;;;2.42;;
49730;SDS011;35622;52.008;5.426;2023-08-07T03:22:09;8.93;;;2.35;;
49730;SDS011;35622;52.008;5.426;2023-08-07T03:24:34;12.73;;;2.42;;
49730;SDS011;35622;52.008;5.426;2023-08-07T03:27:00;8.30;;;2.50;;
49730;SDS011;35622;52.008;5.426;2023-08-07T03:29:26;8.13;;;2.38;;
49730;SDS011;35622;52.008;5.426;2023-08-07T03:31:51;13.10;;;2.70;;
49730;SDS011;35622;52.008;5.426;2023-08-07T03:34:17;10.10;;;2.67;;
49730;SDS011;35622;52.008;5.426;2023-08-07T03:36:42;8.32;;;2.10;;
49730;SDS011;35622;52.008;5.426;2023-08-07T03:39:08;7.75;;;2.97;;
49730;SDS011;35622;52.008;5.426;2023-08-07T03:41:35;12.90;;;2.53;;
49730;SDS011;35622;52.008;5.426;2023-08-07T03:44:00;10.05;;;2.53;;
49730;SDS011;35622;52.008;5.426;2023-08-07T03:46:26;10.57;;;2.08;;
49730;SDS011;35622;52.008;5.426;2023-08-07T03:48:52;7.47;;;2.63;;
49730;SDS011;35622;52.008;5.426;2023-08-07T03:51:17;7.10;;;2.28;;
49730;SDS011;35622;52.008;5.426;2023-08-07T03:53:43;5.00;;;1.95;;
49730;SDS011;35622;52.008;5.426;2023-08-07T03:56:09;7.45;;;1.80;;
49730;SDS011;35622;52.008;5.426;2023-08-07T03:58:35;7.32;;;1.92;;
49730;SDS011;35622;52.008;5.426;2023-08-07T04:01:00;7.50;;;2.00;;
49730;SDS011;35622;52.008;5.426;2023-08-07T04:03:26;7.03;;;1.85;;
49730;SDS011;35622;52.008;5.426;2023-08-07T04:05:52;3.50;;;1.30;;
49730;SDS011;35622;52.008;5.426;2023-08-07T04:08:18;9.30;;;2.10;;
49730;SDS011;35622;52.008;5.426;2023-08-07T04:10:44;6.22;;;1.90;;
49730;SDS011;35622;52.008;5.426;2023-08-07T04:13:10;9.82;;;1.98;;
49730;SDS011;35622;52.008;5.426;2023-08-07T04:15:35;8.45;;;1.70;;
49730;SDS011;35622;52.008;5.426;2023-08-07T04:18:01;9.25;;;2.10;;
49730;SDS011;35622;52.008;5.426;2023-08-07T04:20:26;7.95;;;2.30;;
49730;SDS011;35622;52.008;5.426;2023-08-07T04:22:52;8.23;;;2.13;;
49730;SDS011;35622;52.008;5.426;2023-08-07T04:25:17;5.25;;;2.05;;
49730;SDS011;35622;52.008;5.426;2023-08-07T04:27:43;10.70;;;2.40;;
49730;SDS011;35622;52.008;5.426;2023-08-07T04:30:09;11.73;;;2.30;;
49730;SDS011;35622;52.008;5.426;2023-08-07T04:32:35;8.65;;;2.15;;
49730;SDS011;35622;52.008;5.426;2023-08-07T04:35:00;11.23;;;2.35;;
49730;SDS011;35622;52.008;5.426;2023-08-07T04:37:26;8.45;;;2.60;;
49730;SDS011;35622;52.008;5.426;2023-08-07T04:39:51;8.98;;;2.30;;
49730;SDS011;35622;52.008;5.426;2023-08-07T04:42:17;8.93;;;2.10;;
49730;SDS011;35622;52.008;5.426;2023-08-07T04:44:43;8.45;;;1.92;;
49730;SDS011;35622;52.008;5.426;2023-08-07T04:47:08;10.50;;;2.53;;
49730;SDS011;35622;52.008;5.426;2023-08-07T04:49:34;10.00;;;2.40;;
49730;SDS011;35622;52.008;5.426;2023-08-07T04:51:59;9.45;;;2.60;;
49730;SDS011;35622;52.008;5.426;2023-08-07T04:54:25;11.55;;;2.53;;
49730;SDS011;35622;52.008;5.426;2023-08-07T04:56:50;7.35;;;2.28;;
49730;SDS011;35622;52.008;5.426;2023-08-07T04:59:16;11.93;;;2.10;;
49730;SDS011;35622;52.008;5.426;2023-08-07T05:01:41;8.43;;;2.08;;
49730;SDS011;35622;52.008;5.426;2023-08-07T05:04:07;7.05;;;2.33;;
49730;SDS011;35622;52.008;5.426;2023-08-07T05:06:33;7.93;;;2.25;;
49730;SDS011;35622;52.008;5.426;2023-08-07T05:08:58;9.52;;;2.33;;
49730;SDS011;35622;52.008;5.426;2023-08-07T05:11:24;10.70;;;1.95;;
49730;SDS011;35622;52.008;5.426;2023-08-07T05:13:49;10.13;;;2.20;;
49730;SDS011;35622;52.008;5.426;2023-08-07T05:16:15;6.68;;;2.47;;
49730;SDS011;35622;52.008;5.426;2023-08-07T05:18:43;5.22;;;2.15;;
49730;SDS011;35622;52.008;5.426;2023-08-07T05:21:09;13.65;;;2.60;;
49730;SDS011;35622;52.008;5.426;2023-08-07T05:23:34;12.10;;;3.15;;
49730;SDS011;35622;52.008;5.426;2023-08-07T05:26:00;11.32;;;2.40;;
49730;SDS011;35622;52.008;5.426;2023-08-07T05:28:26;7.55;;;2.30;;
49730;SDS011;35622;52.008;5.426;2023-08-07T05:30:52;12.23;;;2.40;;
49730;SDS011;35622;52.008;5.426;2023-08-07T05:33:18;8.70;;;3.05;;
49730;SDS011;35622;52.008;5.426;2023-08-07T05:35:43;12.00;;;2.53;;
49730;SDS011;35622;52.008;5.426;2023-08-07T05:38:09;14.02;;;3.08;;
49730;SDS011;35622;52.008;5.426;2023-08-07T05:40:35;11.27;;;2.45;;
49730;SDS011;35622;52.008;5.426;2023-08-07T05:43:02;9.20;;;2.83;;
49730;SDS011;35622;52.008;5.426;2023-08-07T05:45:28;9.90;;;3.03;;
49730;SDS011;35622;52.008;5.426;2023-08-07T05:47:54;7.40;;;2.78;;
49730;SDS011;35622;52.008;5.426;2023-08-07T05:50:19;9.05;;;2.78;;
49730;SDS011;35622;52.008;5.426;2023-08-07T05:52:45;9.63;;;2.42;;
49730;SDS011;35622;52.008;5.426;2023-08-07T05:55:10;9.13;;;2.65;;
49730;SDS011;35622;52.008;5.426;2023-08-07T05:57:36;11.02;;;2.50;;
49730;SDS011;35622;52.008;5.426;2023-08-07T06:00:01;7.43;;;2.42;;
49730;SDS011;35622;52.008;5.426;2023-08-07T06:02:34;5.40;;;2.05;;
49730;SDS011;35622;52.008;5.426;2023-08-07T06:05:00;6.15;;;1.63;;
49730;SDS011;35622;52.008;5.426;2023-08-07T06:07:25;6.72;;;2.00;;
49730;SDS011;35622;52.008;5.426;2023-08-07T06:09:51;8.77;;;1.90;;
49730;SDS011;35622;52.008;5.426;2023-08-07T06:12:16;7.63;;;2.17;;
49730;SDS011;35622;52.008;5.426;2023-08-07T06:14:45;7.05;;;1.98;;
49730;SDS011;35622;52.008;5.426;2023-08-07T06:17:10;8.75;;;2.20;;
49730;SDS011;35622;52.008;5.426;2023-08-07T06:19:36;8.13;;;2.53;;
49730;SDS011;35622;52.008;5.426;2023-08-07T06:22:01;9.13;;;2.25;;
49730;SDS011;35622;52.008;5.426;2023-08-07T06:24:27;9.98;;;2.20;;
49730;SDS011;35622;52.008;5.426;2023-08-07T06:26:53;9.98;;;2.60;;
49730;SDS011;35622;52.008;5.426;2023-08-07T06:29:19;7.93;;;2.20;;
49730;SDS011;35622;52.008;5.426;2023-08-07T06:31:44;11.75;;;3.20;;
49730;SDS011;35622;52.008;5.426;2023-08-07T06:34:10;8.43;;;2.83;;
49730;SDS011;35622;52.008;5.426;2023-08-07T06:36:35;7.22;;;2.42;;
49730;SDS011;35622;52.008;5.426;2023-08-07T06:39:01;10.55;;;2.80;;
49730;SDS011;35622;52.008;5.426;2023-08-07T06:41:28;7.28;;;2.47;;
49730;SDS011;35622;52.008;5.426;2023-08-07T06:43:53;12.07;;;3.10;;
49730;SDS011;35622;52.008;5.426;2023-08-07T06:46:19;6.57;;;2.72;;
49730;SDS011;35622;52.008;5.426;2023-08-07T06:48:49;9.48;;;2.47;;
49730;SDS011;35622;52.008;5.426;2023-08-07T06:51:14;10.10;;;3.00;;
49730;SDS011;35622;52.008;5.426;2023-08-07T06:53:41;8.88;;;2.55;;
49730;SDS011;35622;52.008;5.426;2023-08-07T06:56:07;11.30;;;3.00;;
49730;SDS011;35622;52.008;5.426;2023-08-07T06:58:32;7.68;;;2.50;;
49730;SDS011;35622;52.008;5.426;2023-08-07T07:00:58;11.95;;;3.08;;
49730;SDS011;35622;52.008;5.426;2023-08-07T07:03:23;8.48;;;2.72;;
49730;SDS011;35622;52.008;5.426;2023-08-07T07:05:49;9.35;;;3.05;;
49730;SDS011;35622;52.008;5.426;2023-08-07T07:08:15;7.57;;;2.75;;
49730;SDS011;35622;52.008;5.426;2023-08-07T07:10:40;9.70;;;2.20;;
49730;SDS011;35622;52.008;5.426;2023-08-07T07:13:06;9.23;;;2.53;;
49730;SDS011;35622;52.008;5.426;2023-08-07T07:15:34;10.13;;;2.50;;
49730;SDS011;35622;52.008;5.426;2023-08-07T07:18:00;12.70;;;2.90;;
49730;SDS011;35622;52.008;5.426;2023-08-07T07:20:26;8.20;;;2.60;;
49730;SDS011;35622;52.008;5.426;2023-08-07T07:22:52;12.30;;;2.92;;
49730;SDS011;35622;52.008;5.426;2023-08-07T07:25:17;11.35;;;3.15;;
49730;SDS011;35622;52.008;5.426;2023-08-07T07:27:43;12.32;;;2.72;;
49730;SDS011;35622;52.008;5.426;2023-08-07T07:30:09;8.55;;;2.83;;
49730;SDS011;35622;52.008;5.426;2023-08-07T07:32:35;13.15;;;3.25;;
49730;SDS011;35622;52.008;5.426;2023-08-07T07:35:01;18.35;;;3.85;;
49730;SDS011;35622;52.008;5.426;2023-08-07T07:37:26;10.25;;;2.70;;
49730;SDS011;35622;52.008;5.426;2023-08-07T07:39:52;12.15;;;2.67;;
49730;SDS011;35622;52.008;5.426;2023-08-07T07:42:17;10.02;;;2.97;;
49730;SDS011;35622;52.008;5.426;2023-08-07T07:44:43;14.85;;;3.33;;
49730;SDS011;35622;52.008;5.426;2023-08-07T07:47:09;7.47;;;2.80;;
49730;SDS011;35622;52.008;5.426;2023-08-07T07:49:35;8.45;;;2.67;;
49730;SDS011;35622;52.008;5.426;2023-08-07T07:52:00;8.40;;;2.65;;
49730;SDS011;35622;52.008;5.426;2023-08-07T07:54:27;10.32;;;3.08;;
49730;SDS011;35622;52.008;5.426;2023-08-07T07:56:53;8.13;;;2.63;;
49730;SDS011;35622;52.008;5.426;2023-08-07T07:59:19;5.70;;;1.75;;
49730;SDS011;35622;52.008;5.426;2023-08-07T08:01:44;10.85;;;2.50;;
49730;SDS011;35622;52.008;5.426;2023-08-07T08:04:10;9.00;;;2.20;;
49730;SDS011;35622;52.008;5.426;2023-08-07T08:06:36;8.52;;;2.72;;
49730;SDS011;35622;52.008;5.426;2023-08-07T08:09:01;7.93;;;1.90;;
49730;SDS011;35622;52.008;5.426;2023-08-07T08:11:29;8.57;;;2.00;;
49730;SDS011;35622;52.008;5.426;2023-08-07T08:13:55;8.40;;;2.10;;
49730;SDS011;35622;52.008;5.426;2023-08-07T08:16:21;6.80;;;2.38;;
49730;SDS011;35622;52.008;5.426;2023-08-07T08:18:46;8.05;;;2.30;;
49730;SDS011;35622;52.008;5.426;2023-08-07T08:21:12;8.85;;;2.60;;
49730;SDS011;35622;52.008;5.426;2023-08-07T08:23:38;9.50;;;2.53;;
49730;SDS011;35622;52.008;5.426;2023-08-07T08:26:03;9.15;;;2.20;;
49730;SDS011;35622;52.008;5.426;2023-08-07T08:28:29;7.60;;;2.33;;
49730;SDS011;35622;52.008;5.426;2023-08-07T08:30:54;9.40;;;2.35;;
49730;SDS011;35622;52.008;5.426;2023-08-07T08:33:20;8.30;;;2.10;;
49730;SDS011;35622;52.008;5.426;2023-08-07T08:35:45;16.88;;;2.67;;
49730;SDS011;35622;52.008;5.426;2023-08-07T08:38:11;8.65;;;3.00;;
49730;SDS011;35622;52.008;5.426;2023-08-07T08:40:37;10.50;;;2.55;;
49730;SDS011;35622;52.008;5.426;2023-08-07T08:43:03;7.57;;;2.50;;
49730;SDS011;35622;52.008;5.426;2023-08-07T08:45:30;7.72;;;2.58;;
49730;SDS011;35622;52.008;5.426;2023-08-07T08:48:03;10.05;;;2.63;;
49730;SDS011;35622;52.008;5.426;2023-08-07T08:50:29;11.52;;;2.50;;
49730;SDS011;35622;52.008;5.426;2023-08-07T08:52:55;9.18;;;2.30;;
49730;SDS011;35622;52.008;5.426;2023-08-07T08:55:21;7.80;;;2.72;;
49730;SDS011;35622;52.008;5.426;2023-08-07T08:57:48;11.10;;;2.08;;
49730;SDS011;35622;52.008;5.426;2023-08-07T09:00:15;11.70;;;2.00;;
49730;SDS011;35622;52.008;5.426;2023-08-07T09:02:47;10.30;;;2.45;;
49730;SDS011;35622;52.008;5.426;2023-08-07T09:05:16;8.55;;;2.38;;
49730;SDS011;35622;52.008;5.426;2023-08-07T09:07:44;9.43;;;1.95;;
49730;SDS011;35622;52.008;5.426;2023-08-07T09:10:11;8.23;;;2.00;;
49730;SDS011;35622;52.008;5.426;2023-08-07T09:12:42;6.95;;;2.10;;
49730;SDS011;35622;52.008;5.426;2023-08-07T09:15:16;6.68;;;1.70;;
49730;SDS011;35622;52.008;5.426;2023-08-07T09:17:44;9.73;;;2.53;;
49730;SDS011;35622;52.008;5.426;2023-08-07T09:20:11;8.65;;;1.80;;
49730;SDS011;35622;52.008;5.426;2023-08-07T09:22:41;7.88;;;2.15;;
49730;SDS011;35622;52.008;5.426;2023-08-07T09:25:07;7.47;;;2.22;;
49730;SDS011;35622;52.008;5.426;2023-08-07T09:27:35;8.15;;;1.80;;
49730;SDS011;35622;52.008;5.426;2023-08-07T09:30:04;7.97;;;2.78;;
49730;SDS011;35622;52.008;5.426;2023-08-07T09:32:34;8.73;;;2.38;;
49730;SDS011;35622;52.008;5.426;2023-08-07T09:35:01;7.88;;;2.15;;
49730;SDS011;35622;52.008;5.426;2023-08-07T09:37:29;6.80;;;2.30;;
49730;SDS011;35622;52.008;5.426;2023-08-07T09:39:55;8.73;;;2.10;;
49730;SDS011;35622;52.008;5.426;2023-08-07T09:42:20;12.27;;;3.20;;
49730;SDS011;35622;52.008;5.426;2023-08-07T09:44:46;10.57;;;2.47;;
49730;SDS011;35622;52.008;5.426;2023-08-07T09:47:14;9.07;;;2.45;;
49730;SDS011;35622;52.008;5.426;2023-08-07T09:49:42;6.93;;;1.95;;
49730;SDS011;35622;52.008;5.426;2023-08-07T09:52:08;5.65;;;2.38;;
49730;SDS011;35622;52.008;5.426;2023-08-07T09:54:36;8.82;;;2.08;;
49730;SDS011;35622;52.008;5.426;2023-08-07T09:57:02;9.40;;;2.00;;
49730;SDS011;35622;52.008;5.426;2023-08-07T09:59:29;8.15;;;2.10;;
49730;SDS011;35622;52.008;5.426;2023-08-07T10:01:55;6.38;;;2.05;;
49730;SDS011;35622;52.008;5.426;2023-08-07T10:04:21;9.35;;;2.17;;
49730;SDS011;35622;52.008;5.426;2023-08-07T10:06:47;7.35;;;1.90;;
49730;SDS011;35622;52.008;5.426;2023-08-07T10:09:13;8.73;;;2.40;;
49730;SDS011;35622;52.008;5.426;2023-08-07T10:11:40;7.07;;;1.88;;
49730;SDS011;35622;52.008;5.426;2023-08-07T10:14:06;7.75;;;2.17;;
49730;SDS011;35622;52.008;5.426;2023-08-07T10:16:33;6.30;;;2.20;;
49730;SDS011;35622;52.008;5.426;2023-08-07T10:19:05;5.13;;;1.88;;
49730;SDS011;35622;52.008;5.426;2023-08-07T10:21:31;7.82;;;2.25;;
49730;SDS011;35622;52.008;5.426;2023-08-07T10:24:00;7.35;;;2.20;;
49730;SDS011;35622;52.008;5.426;2023-08-07T10:26:29;7.15;;;2.00;;
49730;SDS011;35622;52.008;5.426;2023-08-07T10:28:57;8.75;;;2.03;;
49730;SDS011;35622;52.008;5.426;2023-08-07T10:31:25;6.65;;;1.90;;
49730;SDS011;35622;52.008;5.426;2023-08-07T10:33:52;5.57;;;1.80;;
49730;SDS011;35622;52.008;5.426;2023-08-07T10:36:18;7.30;;;2.85;;
49730;SDS011;35622;52.008;5.426;2023-08-07T10:38:44;5.30;;;2.22;;
49730;SDS011;35622;52.008;5.426;2023-08-07T10:41:13;7.45;;;1.92;;
49730;SDS011;35622;52.008;5.426;2023-08-07T10:43:40;7.72;;;2.05;;
49730;SDS011;35622;52.008;5.426;2023-08-07T10:46:14;6.28;;;1.83;;
49730;SDS011;35622;52.008;5.426;2023-08-07T10:49:02;6.38;;;2.00;;
49730;SDS011;35622;52.008;5.426;2023-08-07T10:51:28;6.80;;;2.33;;
49730;SDS011;35622;52.008;5.426;2023-08-07T10:53:56;7.20;;;1.75;;
49730;SDS011;35622;52.008;5.426;2023-08-07T10:56:34;8.18;;;2.03;;
49730;SDS011;35622;52.008;5.426;2023-08-07T10:59:09;8.02;;;2.00;;
49730;SDS011;35622;52.008;5.426;2023-08-07T11:04:13;6.65;;;1.80;;
49730;SDS011;35622;52.008;5.426;2023-08-07T11:06:40;7.10;;;1.80;;
49730;SDS011;35622;52.008;5.426;2023-08-07T11:09:08;8.60;;;1.90;;
49730;SDS011;35622;52.008;5.426;2023-08-07T11:11:37;10.73;;;2.22;;
49730;SDS011;35622;52.008;5.426;2023-08-07T11:14:11;7.35;;;1.80;;
49730;SDS011;35622;52.008;5.426;2023-08-07T11:16:38;5.32;;;1.80;;
49730;SDS011;35622;52.008;5.426;2023-08-07T11:19:04;6.05;;;1.80;;
49730;SDS011;35622;52.008;5.426;2023-08-07T11:21:30;4.82;;;1.48;;
49730;SDS011;35622;52.008;5.426;2023-08-07T11:23:57;6.35;;;1.60;;
49730;SDS011;35622;52.008;5.426;2023-08-07T11:26:22;5.25;;;1.80;;
49730;SDS011;35622;52.008;5.426;2023-08-07T11:28:49;6.68;;;1.85;;
49730;SDS011;35622;52.008;5.426;2023-08-07T11:31:16;8.77;;;1.98;;
49730;SDS011;35622;52.008;5.426;2023-08-07T11:33:46;6.63;;;1.60;;
49730;SDS011;35622;52.008;5.426;2023-08-07T11:36:15;6.38;;;1.88;;
49730;SDS011;35622;52.008;5.426;2023-08-07T11:38:41;8.30;;;1.90;;
49730;SDS011;35622;52.008;5.426;2023-08-07T11:41:08;10.13;;;1.80;;
49730;SDS011;35622;52.008;5.426;2023-08-07T11:43:34;5.70;;;2.00;;
49730;SDS011;35622;52.008;5.426;2023-08-07T11:46:03;6.10;;;1.80;;
49730;SDS011;35622;52.008;5.426;2023-08-07T11:48:31;6.75;;;1.80;;
49730;SDS011;35622;52.008;5.426;2023-08-07T11:50:58;8.20;;;1.80;;
49730;SDS011;35622;52.008;5.426;2023-08-07T11:53:25;6.18;;;2.05;;
49730;SDS011;35622;52.008;5.426;2023-08-07T11:55:56;6.32;;;1.80;;
49730;SDS011;35622;52.008;5.426;2023-08-07T11:58:27;5.60;;;2.00;;
49730;SDS011;35622;52.008;5.426;2023-08-07T12:00:57;9.45;;;2.00;;
49730;SDS011;35622;52.008;5.426;2023-08-07T12:03:34;4.70;;;1.98;;
49730;SDS011;35622;52.008;5.426;2023-08-07T12:06:04;8.07;;;2.08;;
49730;SDS011;35622;52.008;5.426;2023-08-07T12:08:32;8.80;;;1.75;;
49730;SDS011;35622;52.008;5.426;2023-08-07T12:11:00;8.63;;;2.22;;
49730;SDS011;35622;52.008;5.426;2023-08-07T12:13:28;8.75;;;2.20;;
49730;SDS011;35622;52.008;5.426;2023-08-07T12:15:54;8.85;;;2.00;;
49730;SDS011;35622;52.008;5.426;2023-08-07T12:18:21;8.13;;;1.70;;
49730;SDS011;35622;52.008;5.426;2023-08-07T12:20:51;5.60;;;1.90;;
49730;SDS011;35622;52.008;5.426;2023-08-07T12:23:18;4.68;;;2.05;;
49730;SDS011;35622;52.008;5.426;2023-08-07T12:25:46;5.85;;;1.90;;
49730;SDS011;35622;52.008;5.426;2023-08-07T12:28:11;9.40;;;2.20;;
49730;SDS011;35622;52.008;5.426;2023-08-07T12:30:37;9.32;;;2.05;;
49730;SDS011;35622;52.008;5.426;2023-08-07T12:33:03;13.00;;;1.98;;
49730;SDS011;35622;52.008;5.426;2023-08-07T12:35:32;5.50;;;1.98;;
49730;SDS011;35622;52.008;5.426;2023-08-07T12:38:01;7.50;;;1.60;;
49730;SDS011;35622;52.008;5.426;2023-08-07T12:40:27;9.68;;;1.88;;
49730;SDS011;35622;52.008;5.426;2023-08-07T12:42:54;5.20;;;1.45;;
49730;SDS011;35622;52.008;5.426;2023-08-07T12:45:20;6.45;;;1.90;;
49730;SDS011;35622;52.008;5.426;2023-08-07T12:47:45;3.47;;;1.45;;
49730;SDS011;35622;52.008;5.426;2023-08-07T12:50:11;5.18;;;1.60;;
49730;SDS011;35622;52.008;5.426;2023-08-07T12:52:37;5.88;;;1.88;;
49730;SDS011;35622;52.008;5.426;2023-08-07T12:55:03;6.20;;;1.75;;
49730;SDS011;35622;52.008;5.426;2023-08-07T12:57:29;6.88;;;1.60;;
49730;SDS011;35622;52.008;5.426;2023-08-07T12:59:54;6.35;;;1.85;;
49730;SDS011;35622;52.008;5.426;2023-08-07T13:02:20;4.88;;;1.50;;
49730;SDS011;35622;52.008;5.426;2023-08-07T13:04:45;7.50;;;1.75;;
49730;SDS011;35622;52.008;5.426;2023-08-07T13:07:11;7.40;;;1.67;;
49730;SDS011;35622;52.008;5.426;2023-08-07T13:09:37;6.30;;;2.00;;
49730;SDS011;35622;52.008;5.426;2023-08-07T13:12:02;5.45;;;1.58;;
49730;SDS011;35622;52.008;5.426;2023-08-07T13:14:29;5.70;;;1.50;;
49730;SDS011;35622;52.008;5.426;2023-08-07T13:16:54;4.75;;;1.45;;
49730;SDS011;35622;52.008;5.426;2023-08-07T13:19:20;6.05;;;2.17;;
49730;SDS011;35622;52.008;5.426;2023-08-07T13:21:45;3.28;;;1.60;;
49730;SDS011;35622;52.008;5.426;2023-08-07T13:24:11;4.15;;;1.30;;
49730;SDS011;35622;52.008;5.426;2023-08-07T13:26:37;3.53;;;1.23;;
49730;SDS011;35622;52.008;5.426;2023-08-07T13:29:09;5.32;;;1.33;;
49730;SDS011;35622;52.008;5.426;2023-08-07T13:31:38;7.88;;;1.33;;
49730;SDS011;35622;52.008;5.426;2023-08-07T13:34:06;5.80;;;1.60;;
49730;SDS011;35622;52.008;5.426;2023-08-07T13:36:35;4.00;;;1.30;;
49730;SDS011;35622;52.008;5.426;2023-08-07T13:39:02;3.95;;;1.20;;
49730;SDS011;35622;52.008;5.426;2023-08-07T13:41:31;4.88;;;1.45;;
49730;SDS011;35622;52.008;5.426;2023-08-07T13:43:57;3.90;;;1.02;;
49730;SDS011;35622;52.008;5.426;2023-08-07T13:46:23;6.53;;;1.13;;
49730;SDS011;35622;52.008;5.426;2023-08-07T13:48:49;3.80;;;1.05;;
49730;SDS011;35622;52.008;5.426;2023-08-07T13:51:14;4.05;;;1.33;;
49730;SDS011;35622;52.008;5.426;2023-08-07T13:53:41;2.03;;;0.98;;
49730;SDS011;35622;52.008;5.426;2023-08-07T13:56:07;3.53;;;1.00;;
49730;SDS011;35622;52.008;5.426;2023-08-07T13:58:34;2.33;;;0.90;;
49730;SDS011;35622;52.008;5.426;2023-08-07T14:00:59;3.95;;;1.08;;
49730;SDS011;35622;52.008;5.426;2023-08-07T14:03:25;2.53;;;1.05;;
49730;SDS011;35622;52.008;5.426;2023-08-07T14:05:50;3.60;;;1.20;;
49730;SDS011;35622;52.008;5.426;2023-08-07T14:08:16;6.43;;;1.75;;
49730;SDS011;35622;52.008;5.426;2023-08-07T14:10:42;4.38;;;1.50;;
49730;SDS011;35622;52.008;5.426;2023-08-07T14:13:08;3.67;;;0.90;;
49730;SDS011;35622;52.008;5.426;2023-08-07T14:15:35;7.15;;;1.30;;
49730;SDS011;35622;52.008;5.426;2023-08-07T14:18:00;5.85;;;1.30;;
49730;SDS011;35622;52.008;5.426;2023-08-07T14:20:26;3.50;;;1.65;;
49730;SDS011;35622;52.008;5.426;2023-08-07T14:22:52;6.55;;;2.13;;
49730;SDS011;35622;52.008;5.426;2023-08-07T14:25:18;4.53;;;1.48;;
49730;SDS011;35622;52.008;5.426;2023-08-07T14:27:46;5.95;;;1.40;;
49730;SDS011;35622;52.008;5.426;2023-08-07T14:30:12;4.25;;;1.50;;
49730;SDS011;35622;52.008;5.426;2023-08-07T14:32:37;4.95;;;1.33;;
49730;SDS011;35622;52.008;5.426;2023-08-07T14:35:03;3.58;;;1.33;;
49730;SDS011;35622;52.008;5.426;2023-08-07T14:37:29;4.35;;;1.38;;
49730;SDS011;35622;52.008;5.426;2023-08-07T14:39:55;5.95;;;1.50;;
49730;SDS011;35622;52.008;5.426;2023-08-07T14:42:20;2.15;;;1.02;;
49730;SDS011;35622;52.008;5.426;2023-08-07T14:44:46;7.18;;;1.98;;
49730;SDS011;35622;52.008;5.426;2023-08-07T14:47:11;4.10;;;1.17;;
49730;SDS011;35622;52.008;5.426;2023-08-07T14:49:37;4.38;;;1.33;;
49730;SDS011;35622;52.008;5.426;2023-08-07T14:52:03;5.55;;;1.48;;
49730;SDS011;35622;52.008;5.426;2023-08-07T14:54:30;3.00;;;1.30;;